sensor_id;sensor_type;location;lat;lon;timestamp;temperature;humidity
31783;DHT22;18351;47.560;9.708;2024-01-30T00:01:22;1.10;99.90
31783;DHT22;18351;47.560;9.708;2024-01-30T00:03:47;1.10;99.90
31783;DHT22;18351;47.560;9.708;2024-01-30T00:06:13;1.10;99.90
31783;DHT22;18351;47.560;9.708;2024-01-30T00:08:38;1.10;99.90
31783;DHT22;18351;47.560;9.708;2024-01-30T00:11:04;1.10;99.90
31783;DHT22;18351;47.560;9.708;2024-01-30T00:13:29;1.10;99.90
31783;DHT22;18351;47.560;9.708;2024-01-30T00:15:55;1.10;99.90
31783;DHT22;18351;47.560;9.708;2024-01-30T00:18:20;1.10;99.90
31783;DHT22;18351;47.560;9.708;2024-01-30T00:20:46;1.10;99.90
31783;DHT22;18351;47.560;9.708;2024-01-30T00:23:13;1.00;99.90
31783;DHT22;18351;47.560;9.708;2024-01-30T00:25:38;1.00;99.90
31783;DHT22;18351;47.560;9.708;2024-01-30T00:28:04;0.90;99.90
31783;DHT22;18351;47.560;9.708;2024-01-30T00:30:29;0.90;99.90
31783;DHT22;18351;47.560;9.708;2024-01-30T00:32:55;0.90;99.90
31783;DHT22;18351;47.560;9.708;2024-01-30T00:35:20;0.90;99.90
31783;DHT22;18351;47.560;9.708;2024-01-30T00:37:48;1.00;99.90
31783;DHT22;18351;47.560;9.708;2024-01-30T00:40:13;1.00;99.90
31783;DHT22;18351;47.560;9.708;2024-01-30T00:42:42;0.90;99.90
31783;DHT22;18351;47.560;9.708;2024-01-30T00:45:15;0.90;99.90
31783;DHT22;18351;47.560;9.708;2024-01-30T00:47:41;0.90;99.90
31783;DHT22;18351;47.560;9.708;2024-01-30T00:50:06;0.90;99.90
31783;DHT22;18351;47.560;9.708;2024-01-30T00:52:32;0.90;99.90
31783;DHT22;18351;47.560;9.708;2024-01-30T00:54:59;0.90;99.90
31783;DHT22;18351;47.560;9.708;2024-01-30T00:57:24;0.90;99.90
31783;DHT22;18351;47.560;9.708;2024-01-30T00:59:50;0.90;99.90
31783;DHT22;18351;47.560;9.708;2024-01-30T01:02:16;1.00;99.90
31783;DHT22;18351;47.560;9.708;2024-01-30T01:04:43;1.10;99.90
31783;DHT22;18351;47.560;9.708;2024-01-30T01:07:09;1.20;99.90
31783;DHT22;18351;47.560;9.708;2024-01-30T01:09:35;1.20;99.90
31783;DHT22;18351;47.560;9.708;2024-01-30T01:12:01;1.10;99.90
31783;DHT22;18351;47.560;9.708;2024-01-30T01:14:27;1.10;99.90
31783;DHT22;18351;47.560;9.708;2024-01-30T01:16:52;1.10;99.90
31783;DHT22;18351;47.560;9.708;2024-01-30T01:19:18;1.10;99.90
31783;DHT22;18351;47.560;9.708;2024-01-30T01:21:44;1.20;99.90
31783;DHT22;18351;47.560;9.708;2024-01-30T01:24:09;1.20;99.90
31783;DHT22;18351;47.560;9.708;2024-01-30T01:26:35;1.20;99.90
31783;DHT22;18351;47.560;9.708;2024-01-30T01:29:00;1.20;99.90
31783;DHT22;18351;47.560;9.708;2024-01-30T01:31:26;1.20;99.90
31783;DHT22;18351;47.560;9.708;2024-01-30T01:33:55;1.20;99.90
31783;DHT22;18351;47.560;9.708;2024-01-30T01:36:20;1.20;99.90
31783;DHT22;18351;47.560;9.708;2024-01-30T01:38:46;1.20;99.90
31783;DHT22;18351;47.560;9.708;2024-01-30T01:41:12;1.20;99.90
31783;DHT22;18351;47.560;9.708;2024-01-30T01:43:37;1.10;99.90
31783;DHT22;18351;47.560;9.708;2024-01-30T01:46:05;1.00;99.90
31783;DHT22;18351;47.560;9.708;2024-01-30T01:48:31;1.10;99.90
31783;DHT22;18351;47.560;9.708;2024-01-30T01:50:57;1.10;99.90
31783;DHT22;18351;47.560;9.708;2024-01-30T01:53:23;1.10;99.90
31783;DHT22;18351;47.560;9.708;2024-01-30T01:55:49;1.10;99.90
31783;DHT22;18351;47.560;9.708;2024-01-30T01:58:14;1.10;99.90
31783;DHT22;18351;47.560;9.708;2024-01-30T02:00:41;1.20;99.90
31783;DHT22;18351;47.560;9.708;2024-01-30T02:03:09;1.20;99.90
31783;DHT22;18351;47.560;9.708;2024-01-30T02:05:36;1.30;99.90
31783;DHT22;18351;47.560;9.708;2024-01-30T02:08:02;1.30;99.90
31783;DHT22;18351;47.560;9.708;2024-01-30T02:10:28;1.30;99.90
31783;DHT22;18351;47.560;9.708;2024-01-30T02:12:54;1.20;99.90
31783;DHT22;18351;47.560;9.708;2024-01-30T02:15:19;1.20;99.90
31783;DHT22;18351;47.560;9.708;2024-01-30T02:17:45;1.20;99.90
31783;DHT22;18351;47.560;9.708;2024-01-30T02:20:10;1.20;99.90
31783;DHT22;18351;47.560;9.708;2024-01-30T02:22:37;1.20;99.90
31783;DHT22;18351;47.560;9.708;2024-01-30T02:25:03;1.10;99.90
31783;DHT22;18351;47.560;9.708;2024-01-30T02:27:29;1.10;99.90
31783;DHT22;18351;47.560;9.708;2024-01-30T02:29:55;1.00;99.90
31783;DHT22;18351;47.560;9.708;2024-01-30T02:32:20;1.00;99.90
31783;DHT22;18351;47.560;9.708;2024-01-30T02:34:46;1.00;99.90
31783;DHT22;18351;47.560;9.708;2024-01-30T02:37:11;1.00;99.90
31783;DHT22;18351;47.560;9.708;2024-01-30T02:39:37;1.00;99.90
31783;DHT22;18351;47.560;9.708;2024-01-30T02:42:02;1.00;99.90
31783;DHT22;18351;47.560;9.708;2024-01-30T02:44:28;1.00;99.90
31783;DHT22;18351;47.560;9.708;2024-01-30T02:46:53;1.00;99.90
31783;DHT22;18351;47.560;9.708;2024-01-30T02:49:19;1.00;99.90
31783;DHT22;18351;47.560;9.708;2024-01-30T02:51:45;0.90;99.90
31783;DHT22;18351;47.560;9.708;2024-01-30T02:54:10;0.90;99.90
31783;DHT22;18351;47.560;9.708;2024-01-30T02:56:36;0.90;99.90
31783;DHT22;18351;47.560;9.708;2024-01-30T02:59:02;0.80;99.90
31783;DHT22;18351;47.560;9.708;2024-01-30T03:01:27;0.90;99.90
31783;DHT22;18351;47.560;9.708;2024-01-30T03:03:53;0.90;99.90
31783;DHT22;18351;47.560;9.708;2024-01-30T03:06:18;1.00;99.90
31783;DHT22;18351;47.560;9.708;2024-01-30T03:08:45;1.00;99.90
31783;DHT22;18351;47.560;9.708;2024-01-30T03:11:11;1.00;99.90
31783;DHT22;18351;47.560;9.708;2024-01-30T03:13:36;1.10;99.90
31783;DHT22;18351;47.560;9.708;2024-01-30T03:16:02;1.00;99.90
31783;DHT22;18351;47.560;9.708;2024-01-30T03:18:28;1.10;99.90
31783;DHT22;18351;47.560;9.708;2024-01-30T03:20:53;1.00;99.90
31783;DHT22;18351;47.560;9.708;2024-01-30T03:23:19;1.00;99.90
31783;DHT22;18351;47.560;9.708;2024-01-30T03:25:44;0.90;99.90
31783;DHT22;18351;47.560;9.708;2024-01-30T03:28:10;0.90;99.90
31783;DHT22;18351;47.560;9.708;2024-01-30T03:30:35;1.00;99.90
31783;DHT22;18351;47.560;9.708;2024-01-30T03:33:01;0.90;99.90
31783;DHT22;18351;47.560;9.708;2024-01-30T03:35:26;0.90;99.90
31783;DHT22;18351;47.560;9.708;2024-01-30T03:37:52;0.90;99.90
31783;DHT22;18351;47.560;9.708;2024-01-30T03:40:17;0.90;99.90
31783;DHT22;18351;47.560;9.708;2024-01-30T03:42:43;1.00;99.90
31783;DHT22;18351;47.560;9.708;2024-01-30T03:45:09;1.00;99.90
31783;DHT22;18351;47.560;9.708;2024-01-30T03:47:34;1.10;99.90
31783;DHT22;18351;47.560;9.708;2024-01-30T03:50:00;1.10;99.90
31783;DHT22;18351;47.560;9.708;2024-01-30T03:52:25;1.10;99.90
31783;DHT22;18351;47.560;9.708;2024-01-30T03:54:51;1.00;99.90
31783;DHT22;18351;47.560;9.708;2024-01-30T03:57:16;0.90;99.90
31783;DHT22;18351;47.560;9.708;2024-01-30T03:59:44;0.90;99.90
31783;DHT22;18351;47.560;9.708;2024-01-30T04:02:11;0.90;99.90
31783;DHT22;18351;47.560;9.708;2024-01-30T04:04:37;0.90;99.90
31783;DHT22;18351;47.560;9.708;2024-01-30T04:07:03;0.80;99.90
31783;DHT22;18351;47.560;9.708;2024-01-30T04:09:28;0.80;99.90
31783;DHT22;18351;47.560;9.708;2024-01-30T04:11:54;0.70;99.90
31783;DHT22;18351;47.560;9.708;2024-01-30T04:14:19;0.70;99.90
31783;DHT22;18351;47.560;9.708;2024-01-30T04:16:45;0.60;99.90
31783;DHT22;18351;47.560;9.708;2024-01-30T04:19:10;0.50;99.90
31783;DHT22;18351;47.560;9.708;2024-01-30T04:21:36;0.50;99.90
31783;DHT22;18351;47.560;9.708;2024-01-30T04:24:02;0.40;99.90
31783;DHT22;18351;47.560;9.708;2024-01-30T04:26:27;0.30;99.90
31783;DHT22;18351;47.560;9.708;2024-01-30T04:28:53;0.40;99.90
31783;DHT22;18351;47.560;9.708;2024-01-30T04:31:18;0.40;99.90
31783;DHT22;18351;47.560;9.708;2024-01-30T04:33:44;0.30;99.90
31783;DHT22;18351;47.560;9.708;2024-01-30T04:36:09;0.30;99.90
31783;DHT22;18351;47.560;9.708;2024-01-30T04:38:38;0.30;99.90
31783;DHT22;18351;47.560;9.708;2024-01-30T04:41:04;0.30;99.90
31783;DHT22;18351;47.560;9.708;2024-01-30T04:43:30;0.30;99.90
31783;DHT22;18351;47.560;9.708;2024-01-30T04:45:56;0.20;99.90
31783;DHT22;18351;47.560;9.708;2024-01-30T04:48:21;0.20;99.90
31783;DHT22;18351;47.560;9.708;2024-01-30T04:50:47;0.10;99.90
31783;DHT22;18351;47.560;9.708;2024-01-30T04:53:12;0.10;99.90
31783;DHT22;18351;47.560;9.708;2024-01-30T04:55:38;0.00;99.90
31783;DHT22;18351;47.560;9.708;2024-01-30T04:58:03;0.10;99.90
31783;DHT22;18351;47.560;9.708;2024-01-30T05:00:29;0.10;99.90
31783;DHT22;18351;47.560;9.708;2024-01-30T05:02:55;0.00;99.90
31783;DHT22;18351;47.560;9.708;2024-01-30T05:05:21;0.00;99.90
31783;DHT22;18351;47.560;9.708;2024-01-30T05:07:47;0.00;99.90
31783;DHT22;18351;47.560;9.708;2024-01-30T05:10:13;-0.10;99.90
31783;DHT22;18351;47.560;9.708;2024-01-30T05:12:39;-0.10;99.90
31783;DHT22;18351;47.560;9.708;2024-01-30T05:15:05;-0.10;99.90
31783;DHT22;18351;47.560;9.708;2024-01-30T05:17:30;-0.10;99.90
31783;DHT22;18351;47.560;9.708;2024-01-30T05:19:56;-0.10;99.90
31783;DHT22;18351;47.560;9.708;2024-01-30T05:22:21;0.00;99.90
31783;DHT22;18351;47.560;9.708;2024-01-30T05:24:47;0.00;99.90
31783;DHT22;18351;47.560;9.708;2024-01-30T05:27:12;0.00;99.90
31783;DHT22;18351;47.560;9.708;2024-01-30T05:29:41;0.00;99.90
31783;DHT22;18351;47.560;9.708;2024-01-30T05:32:06;0.00;99.90
31783;DHT22;18351;47.560;9.708;2024-01-30T05:34:32;0.00;99.90
31783;DHT22;18351;47.560;9.708;2024-01-30T05:36:58;0.00;99.90
31783;DHT22;18351;47.560;9.708;2024-01-30T05:39:23;0.00;99.90
31783;DHT22;18351;47.560;9.708;2024-01-30T05:41:49;0.00;99.90
31783;DHT22;18351;47.560;9.708;2024-01-30T05:44:15;0.00;99.90
31783;DHT22;18351;47.560;9.708;2024-01-30T05:46:40;0.10;99.90
31783;DHT22;18351;47.560;9.708;2024-01-30T05:49:06;0.10;99.90
31783;DHT22;18351;47.560;9.708;2024-01-30T05:51:31;0.10;99.90
31783;DHT22;18351;47.560;9.708;2024-01-30T05:53:57;0.10;99.90
31783;DHT22;18351;47.560;9.708;2024-01-30T05:56:22;0.10;99.90
31783;DHT22;18351;47.560;9.708;2024-01-30T05:58:48;0.10;99.90
31783;DHT22;18351;47.560;9.708;2024-01-30T06:01:15;0.10;99.90
31783;DHT22;18351;47.560;9.708;2024-01-30T06:03:41;0.10;99.90
31783;DHT22;18351;47.560;9.708;2024-01-30T06:06:08;0.10;99.90
31783;DHT22;18351;47.560;9.708;2024-01-30T06:08:34;0.10;99.90
31783;DHT22;18351;47.560;9.708;2024-01-30T06:11:00;0.20;99.90
31783;DHT22;18351;47.560;9.708;2024-01-30T06:13:26;0.20;99.90
31783;DHT22;18351;47.560;9.708;2024-01-30T06:15:52;0.20;99.90
31783;DHT22;18351;47.560;9.708;2024-01-30T06:18:17;0.30;99.90
31783;DHT22;18351;47.560;9.708;2024-01-30T06:20:43;0.30;99.90
31783;DHT22;18351;47.560;9.708;2024-01-30T06:23:09;0.30;99.90
31783;DHT22;18351;47.560;9.708;2024-01-30T06:25:34;0.30;99.90
31783;DHT22;18351;47.560;9.708;2024-01-30T06:28:00;0.30;99.90
31783;DHT22;18351;47.560;9.708;2024-01-30T06:30:25;0.30;99.90
31783;DHT22;18351;47.560;9.708;2024-01-30T06:32:51;0.30;99.90
31783;DHT22;18351;47.560;9.708;2024-01-30T06:35:17;0.30;99.90
31783;DHT22;18351;47.560;9.708;2024-01-30T06:37:43;0.30;99.90
31783;DHT22;18351;47.560;9.708;2024-01-30T06:40:09;0.30;99.90
31783;DHT22;18351;47.560;9.708;2024-01-30T06:42:35;0.30;99.90
31783;DHT22;18351;47.560;9.708;2024-01-30T06:45:00;0.40;99.90
31783;DHT22;18351;47.560;9.708;2024-01-30T06:47:26;0.40;99.90
31783;DHT22;18351;47.560;9.708;2024-01-30T06:49:51;0.40;99.90
31783;DHT22;18351;47.560;9.708;2024-01-30T06:52:17;0.40;99.90
31783;DHT22;18351;47.560;9.708;2024-01-30T06:54:42;0.50;99.90
31783;DHT22;18351;47.560;9.708;2024-01-30T06:57:08;0.50;99.90
31783;DHT22;18351;47.560;9.708;2024-01-30T06:59:38;0.50;99.90
31783;DHT22;18351;47.560;9.708;2024-01-30T07:02:10;0.50;99.90
31783;DHT22;18351;47.560;9.708;2024-01-30T07:04:36;0.60;99.90
31783;DHT22;18351;47.560;9.708;2024-01-30T07:07:03;0.70;99.90
31783;DHT22;18351;47.560;9.708;2024-01-30T07:09:30;0.70;99.90
31783;DHT22;18351;47.560;9.708;2024-01-30T07:11:56;0.80;99.90
31783;DHT22;18351;47.560;9.708;2024-01-30T07:14:23;0.90;99.90
31783;DHT22;18351;47.560;9.708;2024-01-30T07:16:49;1.00;99.90
31783;DHT22;18351;47.560;9.708;2024-01-30T07:19:15;1.10;99.90
31783;DHT22;18351;47.560;9.708;2024-01-30T07:21:41;1.20;99.90
31783;DHT22;18351;47.560;9.708;2024-01-30T07:24:06;1.30;99.90
31783;DHT22;18351;47.560;9.708;2024-01-30T07:26:32;1.30;99.90
31783;DHT22;18351;47.560;9.708;2024-01-30T07:28:57;1.30;99.90
31783;DHT22;18351;47.560;9.708;2024-01-30T07:31:23;1.40;99.90
31783;DHT22;18351;47.560;9.708;2024-01-30T07:33:49;1.40;99.90
31783;DHT22;18351;47.560;9.708;2024-01-30T07:36:14;1.30;99.90
31783;DHT22;18351;47.560;9.708;2024-01-30T07:38:40;1.30;99.90
31783;DHT22;18351;47.560;9.708;2024-01-30T07:41:05;1.40;99.90
31783;DHT22;18351;47.560;9.708;2024-01-30T07:43:31;1.50;99.90
31783;DHT22;18351;47.560;9.708;2024-01-30T07:45:56;1.50;99.90
31783;DHT22;18351;47.560;9.708;2024-01-30T07:48:22;1.60;99.90
31783;DHT22;18351;47.560;9.708;2024-01-30T07:50:48;1.60;99.90
31783;DHT22;18351;47.560;9.708;2024-01-30T07:53:13;1.50;99.90
31783;DHT22;18351;47.560;9.708;2024-01-30T07:55:39;1.60;99.90
31783;DHT22;18351;47.560;9.708;2024-01-30T07:58:04;1.60;99.90
31783;DHT22;18351;47.560;9.708;2024-01-30T08:00:30;1.70;99.90
31783;DHT22;18351;47.560;9.708;2024-01-30T08:02:56;1.70;99.90
31783;DHT22;18351;47.560;9.708;2024-01-30T08:05:22;1.80;99.90
31783;DHT22;18351;47.560;9.708;2024-01-30T08:07:48;1.90;99.90
31783;DHT22;18351;47.560;9.708;2024-01-30T08:10:14;1.90;99.90
31783;DHT22;18351;47.560;9.708;2024-01-30T08:12:40;1.90;99.90
31783;DHT22;18351;47.560;9.708;2024-01-30T08:15:06;1.90;99.90
31783;DHT22;18351;47.560;9.708;2024-01-30T08:17:31;1.80;99.90
31783;DHT22;18351;47.560;9.708;2024-01-30T08:19:57;1.90;99.90
31783;DHT22;18351;47.560;9.708;2024-01-30T08:22:22;1.80;99.90
31783;DHT22;18351;47.560;9.708;2024-01-30T08:24:48;1.80;99.90
31783;DHT22;18351;47.560;9.708;2024-01-30T08:27:14;1.80;99.90
31783;DHT22;18351;47.560;9.708;2024-01-30T08:29:39;1.70;99.90
31783;DHT22;18351;47.560;9.708;2024-01-30T08:32:06;1.70;99.90
31783;DHT22;18351;47.560;9.708;2024-01-30T08:34:32;1.60;99.90
31783;DHT22;18351;47.560;9.708;2024-01-30T08:36:57;1.60;99.90
31783;DHT22;18351;47.560;9.708;2024-01-30T08:39:23;1.60;99.90
31783;DHT22;18351;47.560;9.708;2024-01-30T08:41:49;1.60;99.90
31783;DHT22;18351;47.560;9.708;2024-01-30T08:44:14;1.70;99.90
31783;DHT22;18351;47.560;9.708;2024-01-30T08:46:40;1.70;99.90
31783;DHT22;18351;47.560;9.708;2024-01-30T08:49:05;1.80;99.90
31783;DHT22;18351;47.560;9.708;2024-01-30T08:51:31;1.70;99.90
31783;DHT22;18351;47.560;9.708;2024-01-30T08:53:56;1.80;99.90
31783;DHT22;18351;47.560;9.708;2024-01-30T08:56:22;1.90;99.90
31783;DHT22;18351;47.560;9.708;2024-01-30T08:58:47;1.90;99.90
31783;DHT22;18351;47.560;9.708;2024-01-30T09:01:14;1.90;99.90
31783;DHT22;18351;47.560;9.708;2024-01-30T09:03:39;2.10;99.90
31783;DHT22;18351;47.560;9.708;2024-01-30T09:06:10;2.10;99.90
31783;DHT22;18351;47.560;9.708;2024-01-30T09:08:35;2.20;99.90
31783;DHT22;18351;47.560;9.708;2024-01-30T09:11:02;2.30;99.90
31783;DHT22;18351;47.560;9.708;2024-01-30T09:13:33;2.40;99.90
31783;DHT22;18351;47.560;9.708;2024-01-30T09:15:58;2.60;99.90
31783;DHT22;18351;47.560;9.708;2024-01-30T09:18:24;2.60;99.90
31783;DHT22;18351;47.560;9.708;2024-01-30T09:20:49;2.70;99.90
31783;DHT22;18351;47.560;9.708;2024-01-30T09:23:15;2.80;99.90
31783;DHT22;18351;47.560;9.708;2024-01-30T09:25:42;2.70;99.90
31783;DHT22;18351;47.560;9.708;2024-01-30T09:28:08;2.80;99.90
31783;DHT22;18351;47.560;9.708;2024-01-30T09:30:34;2.80;99.90
31783;DHT22;18351;47.560;9.708;2024-01-30T09:32:59;2.90;99.90
31783;DHT22;18351;47.560;9.708;2024-01-30T09:35:25;3.00;99.90
31783;DHT22;18351;47.560;9.708;2024-01-30T09:37:50;3.10;99.90
31783;DHT22;18351;47.560;9.708;2024-01-30T09:40:17;3.20;99.90
31783;DHT22;18351;47.560;9.708;2024-01-30T09:42:46;3.10;99.90
31783;DHT22;18351;47.560;9.708;2024-01-30T09:45:14;3.20;99.90
31783;DHT22;18351;47.560;9.708;2024-01-30T09:47:43;3.30;99.90
31783;DHT22;18351;47.560;9.708;2024-01-30T09:50:10;3.30;99.90
31783;DHT22;18351;47.560;9.708;2024-01-30T09:52:36;3.40;99.90
31783;DHT22;18351;47.560;9.708;2024-01-30T09:55:03;3.50;99.90
31783;DHT22;18351;47.560;9.708;2024-01-30T09:57:28;3.60;99.90
31783;DHT22;18351;47.560;9.708;2024-01-30T09:59:54;3.60;99.90
31783;DHT22;18351;47.560;9.708;2024-01-30T10:02:20;3.60;99.90
31783;DHT22;18351;47.560;9.708;2024-01-30T10:04:50;3.70;99.90
31783;DHT22;18351;47.560;9.708;2024-01-30T10:07:16;3.60;99.90
31783;DHT22;18351;47.560;9.708;2024-01-30T10:09:41;3.70;99.90
31783;DHT22;18351;47.560;9.708;2024-01-30T10:12:09;3.70;99.90
31783;DHT22;18351;47.560;9.708;2024-01-30T10:14:38;3.80;99.90
31783;DHT22;18351;47.560;9.708;2024-01-30T10:17:03;3.90;99.90
31783;DHT22;18351;47.560;9.708;2024-01-30T10:19:31;4.00;99.90
31783;DHT22;18351;47.560;9.708;2024-01-30T10:21:57;4.00;99.90
31783;DHT22;18351;47.560;9.708;2024-01-30T10:24:26;4.10;99.90
31783;DHT22;18351;47.560;9.708;2024-01-30T10:26:51;4.20;99.90
31783;DHT22;18351;47.560;9.708;2024-01-30T10:29:17;4.30;99.90
31783;DHT22;18351;47.560;9.708;2024-01-30T10:31:43;4.20;99.90
31783;DHT22;18351;47.560;9.708;2024-01-30T10:34:08;4.30;99.90
31783;DHT22;18351;47.560;9.708;2024-01-30T10:36:39;4.30;99.90
31783;DHT22;18351;47.560;9.708;2024-01-30T10:39:08;4.40;99.90
31783;DHT22;18351;47.560;9.708;2024-01-30T10:41:42;4.40;99.90
31783;DHT22;18351;47.560;9.708;2024-01-30T10:44:09;4.60;99.90
31783;DHT22;18351;47.560;9.708;2024-01-30T10:46:37;4.80;99.90
31783;DHT22;18351;47.560;9.708;2024-01-30T10:49:03;4.90;99.90
31783;DHT22;18351;47.560;9.708;2024-01-30T10:51:31;5.10;99.90
31783;DHT22;18351;47.560;9.708;2024-01-30T10:53:57;5.10;99.90
31783;DHT22;18351;47.560;9.708;2024-01-30T10:56:24;5.30;99.90
31783;DHT22;18351;47.560;9.708;2024-01-30T10:58:51;5.30;99.90
31783;DHT22;18351;47.560;9.708;2024-01-30T11:01:22;5.20;99.90
31783;DHT22;18351;47.560;9.708;2024-01-30T11:03:51;5.30;99.90
31783;DHT22;18351;47.560;9.708;2024-01-30T11:06:17;5.50;99.90
31783;DHT22;18351;47.560;9.708;2024-01-30T11:08:47;5.60;99.90
31783;DHT22;18351;47.560;9.708;2024-01-30T11:11:25;5.60;99.90
31783;DHT22;18351;47.560;9.708;2024-01-30T11:13:50;5.70;99.90
31783;DHT22;18351;47.560;9.708;2024-01-30T11:16:16;5.80;99.90
31783;DHT22;18351;47.560;9.708;2024-01-30T11:18:41;5.80;99.90
31783;DHT22;18351;47.560;9.708;2024-01-30T11:21:07;5.70;99.90
31783;DHT22;18351;47.560;9.708;2024-01-30T11:23:33;5.80;99.90
31783;DHT22;18351;47.560;9.708;2024-01-30T11:25:59;6.00;99.90
31783;DHT22;18351;47.560;9.708;2024-01-30T11:28:32;6.10;99.90
31783;DHT22;18351;47.560;9.708;2024-01-30T11:31:05;6.30;99.90
31783;DHT22;18351;47.560;9.708;2024-01-30T11:33:32;6.30;99.90
31783;DHT22;18351;47.560;9.708;2024-01-30T11:35:59;6.30;99.90
31783;DHT22;18351;47.560;9.708;2024-01-30T11:38:28;6.30;99.90
31783;DHT22;18351;47.560;9.708;2024-01-30T11:40:57;6.40;99.90
31783;DHT22;18351;47.560;9.708;2024-01-30T11:43:23;6.40;99.90
31783;DHT22;18351;47.560;9.708;2024-01-30T11:45:49;6.30;99.90
31783;DHT22;18351;47.560;9.708;2024-01-30T11:48:15;6.30;99.90
31783;DHT22;18351;47.560;9.708;2024-01-30T11:50:40;6.30;99.90
31783;DHT22;18351;47.560;9.708;2024-01-30T11:53:07;6.20;99.90
31783;DHT22;18351;47.560;9.708;2024-01-30T11:55:33;6.20;99.90
31783;DHT22;18351;47.560;9.708;2024-01-30T11:58:01;6.20;99.90
31783;DHT22;18351;47.560;9.708;2024-01-30T12:00:26;6.30;99.90
31783;DHT22;18351;47.560;9.708;2024-01-30T12:02:53;6.30;99.90
31783;DHT22;18351;47.560;9.708;2024-01-30T12:05:23;6.30;99.90
31783;DHT22;18351;47.560;9.708;2024-01-30T12:07:49;6.50;99.90
31783;DHT22;18351;47.560;9.708;2024-01-30T12:10:15;6.60;99.90
31783;DHT22;18351;47.560;9.708;2024-01-30T12:12:46;6.50;99.90
31783;DHT22;18351;47.560;9.708;2024-01-30T12:15:13;6.50;99.90
31783;DHT22;18351;47.560;9.708;2024-01-30T12:17:39;6.50;99.90
31783;DHT22;18351;47.560;9.708;2024-01-30T12:20:15;6.40;99.90
31783;DHT22;18351;47.560;9.708;2024-01-30T12:22:44;6.40;99.90
31783;DHT22;18351;47.560;9.708;2024-01-30T12:25:14;6.40;99.90
31783;DHT22;18351;47.560;9.708;2024-01-30T12:27:42;6.30;99.90
31783;DHT22;18351;47.560;9.708;2024-01-30T12:30:13;6.20;99.90
31783;DHT22;18351;47.560;9.708;2024-01-30T12:32:46;6.30;99.90
31783;DHT22;18351;47.560;9.708;2024-01-30T12:35:14;6.30;99.90
31783;DHT22;18351;47.560;9.708;2024-01-30T12:37:40;6.40;99.90
31783;DHT22;18351;47.560;9.708;2024-01-30T12:40:07;6.40;99.90
31783;DHT22;18351;47.560;9.708;2024-01-30T12:42:33;6.60;99.90
31783;DHT22;18351;47.560;9.708;2024-01-30T12:44:59;6.50;99.90
31783;DHT22;18351;47.560;9.708;2024-01-30T12:47:25;6.50;99.90
31783;DHT22;18351;47.560;9.708;2024-01-30T12:49:51;6.50;99.90
31783;DHT22;18351;47.560;9.708;2024-01-30T12:52:20;6.50;99.90
31783;DHT22;18351;47.560;9.708;2024-01-30T12:54:50;6.70;99.90
31783;DHT22;18351;47.560;9.708;2024-01-30T12:57:16;6.90;99.90
31783;DHT22;18351;47.560;9.708;2024-01-30T12:59:42;7.10;99.90
31783;DHT22;18351;47.560;9.708;2024-01-30T13:02:08;7.30;99.90
31783;DHT22;18351;47.560;9.708;2024-01-30T13:04:34;7.40;99.90
31783;DHT22;18351;47.560;9.708;2024-01-30T13:07:00;7.50;99.90
31783;DHT22;18351;47.560;9.708;2024-01-30T13:09:26;7.50;99.90
31783;DHT22;18351;47.560;9.708;2024-01-30T13:11:52;7.50;99.90
31783;DHT22;18351;47.560;9.708;2024-01-30T13:14:18;7.60;99.90
31783;DHT22;18351;47.560;9.708;2024-01-30T13:16:44;7.60;99.90
31783;DHT22;18351;47.560;9.708;2024-01-30T13:19:09;7.60;99.90
31783;DHT22;18351;47.560;9.708;2024-01-30T13:21:35;7.50;99.90
31783;DHT22;18351;47.560;9.708;2024-01-30T13:24:00;7.40;99.90
31783;DHT22;18351;47.560;9.708;2024-01-30T13:26:26;7.30;99.90
31783;DHT22;18351;47.560;9.708;2024-01-30T13:28:51;7.20;99.90
31783;DHT22;18351;47.560;9.708;2024-01-30T13:31:17;7.20;99.90
31783;DHT22;18351;47.560;9.708;2024-01-30T13:33:44;7.10;99.90
31783;DHT22;18351;47.560;9.708;2024-01-30T13:36:10;7.00;99.90
31783;DHT22;18351;47.560;9.708;2024-01-30T13:38:36;7.00;99.90
31783;DHT22;18351;47.560;9.708;2024-01-30T13:41:02;6.80;99.90
31783;DHT22;18351;47.560;9.708;2024-01-30T13:43:28;6.70;99.90
31783;DHT22;18351;47.560;9.708;2024-01-30T13:45:53;6.60;99.90
31783;DHT22;18351;47.560;9.708;2024-01-30T13:48:19;6.40;99.90
31783;DHT22;18351;47.560;9.708;2024-01-30T13:50:45;6.20;99.90
31783;DHT22;18351;47.560;9.708;2024-01-30T13:53:11;6.10;99.90
31783;DHT22;18351;47.560;9.708;2024-01-30T13:55:37;6.10;99.90
31783;DHT22;18351;47.560;9.708;2024-01-30T13:58:04;6.00;99.90
31783;DHT22;18351;47.560;9.708;2024-01-30T14:00:30;6.00;99.90
31783;DHT22;18351;47.560;9.708;2024-01-30T14:02:55;5.90;99.90
31783;DHT22;18351;47.560;9.708;2024-01-30T14:05:22;5.90;99.90
31783;DHT22;18351;47.560;9.708;2024-01-30T14:07:48;5.90;99.90
31783;DHT22;18351;47.560;9.708;2024-01-30T14:10:15;5.90;99.90
31783;DHT22;18351;47.560;9.708;2024-01-30T14:12:42;5.90;99.90
31783;DHT22;18351;47.560;9.708;2024-01-30T14:15:08;6.00;99.90
31783;DHT22;18351;47.560;9.708;2024-01-30T14:17:35;6.00;99.90
31783;DHT22;18351;47.560;9.708;2024-01-30T14:20:02;5.90;99.90
31783;DHT22;18351;47.560;9.708;2024-01-30T14:22:28;5.90;99.90
31783;DHT22;18351;47.560;9.708;2024-01-30T14:24:54;5.80;99.90
31783;DHT22;18351;47.560;9.708;2024-01-30T14:27:21;5.70;99.90
31783;DHT22;18351;47.560;9.708;2024-01-30T14:29:47;5.80;99.90
31783;DHT22;18351;47.560;9.708;2024-01-30T14:32:12;5.90;99.90
31783;DHT22;18351;47.560;9.708;2024-01-30T14:34:40;6.00;99.90
31783;DHT22;18351;47.560;9.708;2024-01-30T14:37:07;6.00;99.90
31783;DHT22;18351;47.560;9.708;2024-01-30T14:39:32;6.10;99.90
31783;DHT22;18351;47.560;9.708;2024-01-30T14:41:59;6.20;99.90
31783;DHT22;18351;47.560;9.708;2024-01-30T14:44:25;6.20;99.90
31783;DHT22;18351;47.560;9.708;2024-01-30T14:46:51;6.30;99.90
31783;DHT22;18351;47.560;9.708;2024-01-30T14:49:16;6.30;99.90
31783;DHT22;18351;47.560;9.708;2024-01-30T14:51:42;6.30;99.90
31783;DHT22;18351;47.560;9.708;2024-01-30T14:54:08;6.20;99.90
31783;DHT22;18351;47.560;9.708;2024-01-30T14:56:33;6.20;99.90
31783;DHT22;18351;47.560;9.708;2024-01-30T14:59:00;6.10;99.90
31783;DHT22;18351;47.560;9.708;2024-01-30T15:01:25;6.00;99.90
31783;DHT22;18351;47.560;9.708;2024-01-30T15:03:51;5.90;99.90
31783;DHT22;18351;47.560;9.708;2024-01-30T15:06:17;5.80;99.90
31783;DHT22;18351;47.560;9.708;2024-01-30T15:08:43;5.80;99.90
31783;DHT22;18351;47.560;9.708;2024-01-30T15:11:09;5.70;99.90
31783;DHT22;18351;47.560;9.708;2024-01-30T15:13:35;5.60;99.90
31783;DHT22;18351;47.560;9.708;2024-01-30T15:16:00;5.60;99.90
31783;DHT22;18351;47.560;9.708;2024-01-30T15:18:29;5.50;99.90
31783;DHT22;18351;47.560;9.708;2024-01-30T15:20:55;5.40;99.90
31783;DHT22;18351;47.560;9.708;2024-01-30T15:23:20;5.40;99.90
31783;DHT22;18351;47.560;9.708;2024-01-30T15:25:46;5.30;99.90
31783;DHT22;18351;47.560;9.708;2024-01-30T15:28:11;5.30;99.90
31783;DHT22;18351;47.560;9.708;2024-01-30T15:30:38;5.20;99.90
31783;DHT22;18351;47.560;9.708;2024-01-30T15:33:04;5.10;99.90
31783;DHT22;18351;47.560;9.708;2024-01-30T15:35:30;5.10;99.90
31783;DHT22;18351;47.560;9.708;2024-01-30T15:37:55;5.10;99.90